Time;durP1;ratioP1;P1;durP2;ratioP2;P2;SDS_P1;SDS_P2;PMS_P1;PMS_P2;Temp;Humidity;BMP_temperature;BMP_pressure;BME280_temperature;BME280_humidity;BME280_pressure;Samples;Min_cycle;Max_cycle;Signal;HPM_P1;HPM_P2
2022/04/25 03:00:38;;;;;;;2.30;2.20;;;10.80;83.70;;;;;;6116747;23;20395;31
2022/04/25 03:03:04;;;;;;;2.23;2.13;;;10.80;83.80;;;;;;4991637;28;20468;-73
2022/04/25 03:05:31;;;;;;;2.20;2.10;;;10.80;83.80;;;;;;4993793;28;20452;-73
2022/04/25 03:07:58;;;;;;;2.17;2.07;;;10.90;83.50;;;;;;4993731;28;20510;-73
2022/04/25 03:10:24;;;;;;;2.27;2.17;;;10.90;83.30;;;;;;4993452;28;20495;-73
2022/04/25 03:12:51;;;;;;;1.80;1.70;;;10.90;83.50;;;;;;4993523;28;20457;-73
2022/04/25 03:15:18;;;;;;;1.87;1.77;;;10.90;83.30;;;;;;4993946;28;20453;-73
2022/04/25 03:17:46;;;;;;;2.20;2.10;;;11.00;83.10;;;;;;4994452;28;20499;-73
2022/04/25 03:20:14;;;;;;;2.07;1.97;;;11.00;82.80;;;;;;4993187;28;20449;-73
2022/04/25 03:22:40;;;;;;;2.10;2.00;;;11.00;82.50;;;;;;4993108;28;20560;-73
2022/04/25 03:25:07;;;;;;;2.00;1.90;;;11.00;82.30;;;;;;4993115;28;20457;-73
2022/04/25 03:27:34;;;;;;;1.93;1.83;;;11.00;82.40;;;;;;4993319;28;20445;-73
2022/04/25 03:30:01;;;;;;;2.00;1.90;;;11.00;82.20;;;;;;4993029;28;20552;-73
2022/04/25 03:32:27;;;;;;;2.27;2.17;;;11.00;82.20;;;;;;4993235;28;20528;-74
2022/04/25 03:34:56;;;;;;;1.90;1.80;;;11.00;82.30;;;;;;4993375;28;20472;-73
2022/04/25 03:37:24;;;;;;;2.10;2.00;;;11.10;82.20;;;;;;4993271;28;20445;-73
2022/04/25 03:39:50;;;;;;;2.00;1.90;;;11.10;81.90;;;;;;4993093;28;20492;-73
2022/04/25 03:42:17;;;;;;;1.83;1.73;;;11.10;82.00;;;;;;4993041;28;20472;-73
2022/04/25 03:44:45;;;;;;;2.00;1.90;;;11.10;82.00;;;;;;4993216;28;20452;-73
2022/04/25 03:47:11;;;;;;;2.10;2.00;;;11.10;82.10;;;;;;4993567;28;20461;-73
2022/04/25 03:49:38;;;;;;;2.13;2.03;;;11.10;82.20;;;;;;4993603;28;20460;-73
2022/04/25 03:52:07;;;;;;;2.20;2.10;;;11.10;82.00;;;;;;4993068;28;20528;-74
2022/04/25 03:57:18;;;;;;;2.30;2.20;;;11.10;82.20;;;;;;4993483;28;20408;-73
2022/04/25 03:59:44;;;;;;;2.20;2.10;;;11.10;82.20;;;;;;4993036;28;20515;-73
2022/04/25 04:02:11;;;;;;;2.10;2.00;;;11.10;82.00;;;;;;4992740;28;20539;-74
2022/04/25 04:04:38;;;;;;;1.93;1.83;;;11.10;82.10;;;;;;4993625;28;20456;-73
2022/04/25 04:07:06;;;;;;;1.93;1.83;;;11.10;82.10;;;;;;4993240;28;20449;-73
2022/04/25 04:09:49;;;;;;;2.00;1.90;;;11.00;82.10;;;;;;4992687;28;20452;-73
2022/04/25 04:12:17;;;;;;;2.00;1.90;;;11.00;82.20;;;;;;4993091;28;20552;-73
2022/04/25 04:14:45;;;;;;;2.30;2.20;;;11.00;82.20;;;;;;4993015;28;20444;-73
2022/04/25 04:17:11;;;;;;;2.20;2.10;;;10.90;82.50;;;;;;4996452;28;20445;-73
2022/04/25 04:19:39;;;;;;;2.13;2.03;;;11.00;82.80;;;;;;4996405;28;20453;-73
2022/04/25 04:22:07;;;;;;;2.00;1.90;;;11.00;82.90;;;;;;4996672;28;20575;-73
2022/04/25 04:24:35;;;;;;;2.13;2.03;;;11.00;83.00;;;;;;4996159;28;20870;-73
2022/04/25 04:27:02;;;;;;;2.00;1.90;;;11.00;83.00;;;;;;4995908;28;20541;-73
2022/04/25 04:29:30;;;;;;;2.33;2.23;;;11.10;82.80;;;;;;4996600;28;20485;-73
2022/04/25 04:31:57;;;;;;;2.33;2.23;;;11.20;82.80;;;;;;4996461;28;20575;-74
2022/04/25 04:34:24;;;;;;;1.90;1.80;;;11.20;82.80;;;;;;4996884;28;20456;-74
2022/04/25 04:36:51;;;;;;;1.90;1.80;;;11.30;82.50;;;;;;4996649;28;20472;-73
2022/04/25 04:39:19;;;;;;;1.87;1.77;;;11.30;82.50;;;;;;4996215;28;20536;-73
2022/04/25 04:41:46;;;;;;;1.77;1.67;;;11.30;82.40;;;;;;4996402;28;20465;-73
2022/04/25 04:44:13;;;;;;;1.70;1.60;;;11.30;82.60;;;;;;4996392;28;20449;-73
2022/04/25 04:46:40;;;;;;;2.03;1.93;;;11.30;82.70;;;;;;4996279;28;20449;-73
2022/04/25 04:49:06;;;;;;;2.30;2.20;;;11.40;82.50;;;;;;4996297;28;20525;-74
2022/04/25 04:51:33;;;;;;;2.10;2.00;;;11.40;82.40;;;;;;4995846;28;20543;-73
2022/04/25 04:54:01;;;;;;;2.37;2.27;;;11.40;82.50;;;;;;4995994;28;20445;-73
2022/04/25 04:56:30;;;;;;;1.80;1.70;;;11.40;82.80;;;;;;4995975;28;20541;-74
2022/04/25 04:58:57;;;;;;;2.17;2.07;;;11.40;82.90;;;;;;4996702;28;20943;-74
2022/04/25 05:01:23;;;;;;;1.93;1.83;;;11.40;83.00;;;;;;4995527;28;20477;-72
2022/04/25 05:03:50;;;;;;;2.30;2.20;;;11.50;83.10;;;;;;4995886;28;20445;-73
2022/04/25 05:06:17;;;;;;;2.23;2.13;;;11.50;83.00;;;;;;4995901;28;20460;-73
2022/04/25 05:08:44;;;;;;;2.00;1.90;;;11.50;83.00;;;;;;4995596;28;20852;-73
2022/04/25 05:11:11;;;;;;;2.10;2.00;;;11.60;83.00;;;;;;4995583;28;20489;-74
2022/04/25 05:13:39;;;;;;;1.90;1.80;;;11.70;82.80;;;;;;4995847;28;20472;-74
2022/04/25 05:16:07;;;;;;;1.87;1.77;;;11.70;82.50;;;;;;5013737;28;20444;-73
2022/04/25 05:18:33;;;;;;;1.93;1.83;;;11.70;82.30;;;;;;5011503;28;20449;-73
2022/04/25 05:21:00;;;;;;;2.07;1.97;;;11.80;82.30;;;;;;5000914;28;20814;-73
2022/04/25 05:23:27;;;;;;;2.07;1.97;;;11.80;82.40;;;;;;4999909;28;20484;-73
2022/04/25 05:25:54;;;;;;;1.83;1.77;;;11.80;82.40;;;;;;4998308;28;20480;-74
2022/04/25 05:28:21;;;;;;;2.23;2.13;;;11.90;82.30;;;;;;4997838;28;20895;-73
2022/04/25 05:30:50;;;;;;;2.10;2.00;;;11.90;82.30;;;;;;4997742;28;20496;-74
2022/04/25 05:33:18;;;;;;;2.40;2.30;;;12.00;82.00;;;;;;4996966;28;20452;-74
2022/04/25 05:35:44;;;;;;;2.20;2.10;;;12.00;81.90;;;;;;4996658;28;20941;-74
2022/04/25 05:38:12;;;;;;;2.00;1.90;;;12.10;81.70;;;;;;4996736;28;20858;-73
2022/04/25 05:40:39;;;;;;;2.20;2.10;;;12.00;81.30;;;;;;4996792;28;20815;-73
2022/04/25 05:43:07;;;;;;;1.70;1.60;;;12.00;81.80;;;;;;4996131;28;20457;-74
2022/04/25 05:45:35;;;;;;;2.00;1.90;;;12.00;81.60;;;;;;4995789;28;20461;-74
2022/04/25 05:51:58;;;;;;;2.10;2.00;;;12.10;81.50;;;;;;4996374;28;20475;-74
2022/04/25 05:53:37;;;;;;;1.67;1.57;;;12.20;81.20;;;;;;4994741;28;20448;-73
2022/04/25 05:56:04;;;;;;;1.47;1.47;;;12.30;80.40;;;;;;4994653;28;20488;-74
2022/04/25 05:58:31;;;;;;;1.97;1.87;;;12.40;80.80;;;;;;4995397;28;20453;-74
2022/04/25 06:00:58;;;;;;;1.90;1.80;;;12.40;80.60;;;;;;4994954;28;20512;-74
2022/04/25 06:03:26;;;;;;;1.93;1.83;;;12.50;80.90;;;;;;4994584;28;20905;-74
2022/04/25 06:05:54;;;;;;;2.10;2.00;;;12.60;80.40;;;;;;4994230;28;20444;-74
2022/04/25 06:08:20;;;;;;;2.43;2.33;;;12.60;80.30;;;;;;4994613;28;20449;-74
2022/04/25 06:10:47;;;;;;;2.20;2.10;;;12.60;80.70;;;;;;4994013;28;20906;-74
2022/04/25 06:13:14;;;;;;;2.10;2.00;;;12.50;81.60;;;;;;4994418;28;20449;-74
2022/04/25 06:15:41;;;;;;;1.80;1.70;;;12.50;81.90;;;;;;4994314;28;20543;-74
2022/04/25 06:18:07;;;;;;;2.20;2.10;;;12.60;82.10;;;;;;4993999;28;20474;-74
2022/04/25 06:20:36;;;;;;;1.60;1.60;;;12.60;82.10;;;;;;4994202;28;20445;-74
2022/04/25 06:23:03;;;;;;;2.33;2.23;;;12.70;81.50;;;;;;4994356;28;20476;-74
2022/04/25 06:25:30;;;;;;;1.90;1.80;;;12.80;81.20;;;;;;4993454;28;20467;-74
2022/04/25 06:27:58;;;;;;;1.70;1.70;;;12.90;80.80;;;;;;4995168;28;20633;-74
2022/04/25 06:30:28;;;;;;;2.30;2.20;;;13.10;80.70;;;;;;4994751;28;20972;-73
2022/04/25 06:32:55;;;;;;;1.60;1.60;;;13.30;79.80;;;;;;4993984;28;20453;-74
2022/04/25 06:35:22;;;;;;;2.20;2.10;;;13.50;79.30;;;;;;4994071;28;20499;-73
2022/04/25 06:37:50;;;;;;;1.80;1.70;;;13.70;78.30;;;;;;4993881;28;20468;-74
2022/04/25 06:40:17;;;;;;;1.80;1.70;;;13.80;77.50;;;;;;4993255;28;20861;-73
2022/04/25 06:42:44;;;;;;;1.60;1.60;;;13.80;77.10;;;;;;4993990;28;20229;-73
2022/04/25 06:45:12;;;;;;;1.87;1.80;;;13.90;77.40;;;;;;4994024;28;20449;-72
2022/04/25 06:47:39;;;;;;;1.80;1.70;;;13.80;77.50;;;;;;4995085;28;20460;-72
2022/04/25 06:50:07;;;;;;;1.90;1.80;;;13.80;77.60;;;;;;4994719;28;20835;-71
2022/04/25 06:52:34;;;;;;;1.73;1.63;;;13.80;77.40;;;;;;4994567;28;21034;-71
2022/04/25 06:55:04;;;;;;;1.93;1.83;;;13.90;76.80;;;;;;4994097;28;20449;-72
2022/04/25 06:57:33;;;;;;;1.80;1.70;;;13.70;76.90;;;;;;4994158;28;20429;-70
2022/04/25 07:00:00;;;;;;;1.80;1.70;;;13.60;77.30;;;;;;4994035;28;20449;-71
2022/04/25 07:02:26;;;;;;;2.00;1.90;;;13.60;76.80;;;;;;4994015;28;20480;-72
2022/04/25 07:04:53;;;;;;;1.93;1.83;;;13.50;76.30;;;;;;4994129;28;20456;-72
2022/04/25 07:07:20;;;;;;;1.83;1.73;;;13.50;76.90;;;;;;4994091;28;20870;-72
2022/04/25 07:09:46;;;;;;;1.90;1.80;;;13.70;76.90;;;;;;4993503;28;20457;-73
2022/04/25 07:12:14;;;;;;;2.00;1.90;;;13.60;76.20;;;;;;4993472;28;20543;-73
2022/04/25 07:14:41;;;;;;;1.50;1.50;;;13.70;76.70;;;;;;4993716;28;20449;-73
2022/04/25 07:17:08;;;;;;;1.83;1.73;;;13.90;76.60;;;;;;4993713;28;20457;-70
2022/04/25 07:19:39;;;;;;;1.60;1.60;;;14.00;76.50;;;;;;4993709;28;20433;-72
2022/04/25 07:30:21;;;;;;;2.20;2.10;;;14.60;72.80;;;;;;4994187;28;20936;-73
2022/04/25 07:32:48;;;;;;;1.90;1.80;;;14.40;73.40;;;;;;4993647;28;20551;-73
2022/04/25 07:35:14;;;;;;;1.93;1.83;;;14.00;75.00;;;;;;4994039;28;20461;-73
2022/04/25 07:37:41;;;;;;;1.73;1.63;;;13.60;76.50;;;;;;4993622;28;20874;-73
2022/04/25 07:40:09;;;;;;;1.50;1.50;;;13.80;74.00;;;;;;4993706;28;20563;-73
2022/04/25 07:42:38;;;;;;;1.53;1.53;;;13.90;74.40;;;;;;4993352;28;20516;-73
2022/04/25 07:45:06;;;;;;;1.50;1.47;;;14.00;74.20;;;;;;4993765;28;20455;-73
2022/04/25 07:47:33;;;;;;;1.70;1.60;;;14.20;74.40;;;;;;4993179;28;20496;-73
2022/04/25 07:50:00;;;;;;;1.60;1.60;;;14.20;74.50;;;;;;4993300;28;20445;-72
2022/04/25 07:52:26;;;;;;;2.23;2.13;;;14.30;74.50;;;;;;4996832;28;20492;-73
2022/04/25 07:54:55;;;;;;;1.93;1.83;;;14.30;75.10;;;;;;4997052;28;20449;-72
2022/04/25 07:57:21;;;;;;;2.00;1.90;;;14.30;75.50;;;;;;4996888;28;20971;-72
2022/04/25 07:59:49;;;;;;;1.40;1.40;;;14.10;75.40;;;;;;4997108;28;20445;-72
2022/04/25 08:02:17;;;;;;;1.80;1.70;;;14.20;75.20;;;;;;4997030;28;20480;-73
2022/04/25 08:04:45;;;;;;;1.50;1.50;;;14.30;75.60;;;;;;4996485;28;20456;-71
2022/04/25 08:07:11;;;;;;;1.93;1.83;;;14.30;75.70;;;;;;4996891;28;20493;-72
2022/04/25 08:09:38;;;;;;;1.87;1.77;;;14.20;75.20;;;;;;4996715;28;20448;-72
2022/04/25 08:20:19;;;;;;;1.93;1.83;;;12.90;78.20;;;;;;5000005;28;20416;-72
2022/04/25 08:22:46;;;;;;;2.13;2.03;;;12.80;78.10;;;;;;5000583;28;20468;-72
2022/04/25 08:25:12;;;;;;;2.03;1.93;;;12.60;78.30;;;;;;4998811;28;20448;-72
2022/04/25 08:27:39;;;;;;;2.17;2.07;;;12.70;77.70;;;;;;4996256;28;20979;-73
2022/04/25 08:30:08;;;;;;;1.83;1.73;;;12.60;77.80;;;;;;4996383;28;20457;-72
2022/04/25 08:32:35;;;;;;;2.10;2.00;;;12.60;78.60;;;;;;4996603;28;20517;-73
2022/04/25 08:35:02;;;;;;;2.10;2.00;;;12.80;77.80;;;;;;4996199;28;20932;-71
2022/04/25 08:37:29;;;;;;;2.30;2.20;;;13.00;77.90;;;;;;4996518;28;20457;-72
2022/04/25 08:39:55;;;;;;;2.50;2.40;;;12.90;77.10;;;;;;4996144;28;20812;-72
2022/04/25 08:42:22;;;;;;;2.10;2.00;;;13.00;78.20;;;;;;4996165;28;20464;-72
2022/04/25 08:44:51;;;;;;;2.20;2.10;;;13.20;78.00;;;;;;4996295;28;20461;-72
2022/04/25 08:47:20;;;;;;;2.00;1.90;;;13.60;77.40;;;;;;4996528;28;20448;-71
2022/04/25 08:49:47;;;;;;;1.90;1.80;;;13.90;76.80;;;;;;4996165;28;20453;-72
2022/04/25 08:52:14;;;;;;;1.80;1.70;;;13.80;75.80;;;;;;4995880;28;20492;-72
2022/04/25 08:54:42;;;;;;;1.90;1.80;;;13.80;74.50;;;;;;4995942;28;20519;-71
2022/04/25 08:57:09;;;;;;;1.87;1.80;;;13.80;74.90;;;;;;4996218;28;20456;-72
2022/04/25 08:59:36;;;;;;;2.10;1.90;;;13.90;74.00;;;;;;4995955;28;20448;-72
2022/04/25 09:02:04;;;;;;;2.17;2.07;;;13.90;74.70;;;;;;4995077;28;20484;-71
2022/04/25 09:04:32;;;;;;;1.97;1.87;;;13.80;75.40;;;;;;4995822;28;20533;-71
2022/04/25 09:06:59;;;;;;;2.00;1.90;;;13.60;75.50;;;;;;4995471;28;21023;-73
2022/04/25 09:09:27;;;;;;;2.13;2.03;;;13.40;74.40;;;;;;4995711;28;20455;-72
2022/04/25 09:14:43;;;;;;;1.90;1.80;;;13.30;75.90;;;;;;4990451;28;21052;-71
2022/04/25 09:17:10;;;;;;;2.00;1.90;;;13.00;77.10;;;;;;5118546;23;20458;-75
2022/04/25 09:19:40;;;;;;;1.70;1.60;;;13.20;76.60;;;;;;5016262;28;20437;-75
2022/04/25 09:22:08;;;;;;;2.00;1.90;;;13.50;76.40;;;;;;5016060;28;20963;-76
2022/04/25 09:24:36;;;;;;;1.93;1.83;;;13.50;75.50;;;;;;5016028;28;20448;-76
2022/04/25 09:27:16;;;;;;;2.03;1.93;;;13.20;76.80;;;;;;5016597;28;20490;-76
2022/04/25 09:29:46;;;;;;;1.93;1.83;;;13.20;77.30;;;;;;5015335;28;20428;-74
2022/04/25 09:32:13;;;;;;;2.37;2.27;;;13.30;76.50;;;;;;5015259;28;20484;-74
2022/04/25 09:37:41;;;;;;;1.40;1.40;;;13.60;76.90;;;;;;5014972;28;20447;-76
2022/04/25 09:40:09;;;;;;;2.00;1.90;;;13.70;75.80;;;;;;5015228;28;20448;-75
2022/04/25 09:42:36;;;;;;;1.37;1.30;;;13.70;76.40;;;;;;5015216;28;20520;-76
2022/04/25 09:45:04;;;;;;;1.80;1.70;;;13.60;74.20;;;;;;5015295;28;20454;-75
2022/04/25 09:47:32;;;;;;;1.47;1.47;;;13.70;76.80;;;;;;5015055;28;20479;-73
2022/04/25 09:50:02;;;;;;;1.43;1.43;;;14.00;74.40;;;;;;5014985;28;20448;-76
2022/04/25 09:52:30;;;;;;;1.50;1.50;;;14.60;74.90;;;;;;5014898;28;20538;-75
2022/04/25 09:54:58;;;;;;;1.80;1.70;;;15.00;71.50;;;;;;5014916;28;20448;-76
2022/04/25 09:57:31;;;;;;;1.83;1.73;;;15.30;72.20;;;;;;5014496;28;20563;-76
2022/04/25 09:59:59;;;;;;;1.70;1.70;;;15.50;73.20;;;;;;5014853;28;20455;-77
2022/04/25 10:02:26;;;;;;;1.77;1.67;;;15.60;71.30;;;;;;5015051;28;20440;-76
2022/04/25 10:04:53;;;;;;;1.57;1.53;;;15.40;71.50;;;;;;5014960;28;20456;-77
2022/04/25 10:07:23;;;;;;;1.47;1.47;;;15.30;70.50;;;;;;5014621;28;20460;-76
2022/04/25 10:09:52;;;;;;;1.77;1.67;;;15.20;72.10;;;;;;5014617;28;20530;-78
2022/04/25 10:12:19;;;;;;;1.87;1.77;;;15.00;71.60;;;;;;5014536;28;20484;-75
2022/04/25 10:14:47;;;;;;;1.67;1.60;;;14.80;71.30;;;;;;5014150;28;20522;-75
2022/04/25 10:17:16;;;;;;;1.80;1.70;;;15.00;71.90;;;;;;5014602;28;20472;-75
2022/04/25 10:19:44;;;;;;;1.73;1.63;;;15.00;71.60;;;;;;5014500;28;20475;-76
2022/04/25 10:22:11;;;;;;;1.70;1.60;;;15.10;72.30;;;;;;5014178;28;20975;-75
2022/04/25 10:24:40;;;;;;;2.00;1.90;;;15.50;71.60;;;;;;5014544;28;20456;-77
2022/04/25 10:27:12;;;;;;;1.50;1.50;;;15.80;70.40;;;;;;5014513;28;20472;-76
2022/04/25 10:29:45;;;;;;;1.60;1.60;;;15.90;69.70;;;;;;5014128;28;20436;-76
2022/04/25 10:32:12;;;;;;;1.63;1.53;;;16.00;69.40;;;;;;5014062;28;20845;-74
2022/04/25 10:34:46;;;;;;;1.60;1.60;;;15.90;69.50;;;;;;5014553;28;20448;-76
2022/04/25 10:37:28;;;;;;;1.70;1.60;;;16.00;69.60;;;;;;5014940;28;20472;-75
2022/04/25 10:39:57;;;;;;;2.00;1.90;;;15.80;68.50;;;;;;5014523;28;20531;-75
2022/04/25 10:45:09;;;;;;;1.50;1.50;;;15.40;70.30;;;;;;5014317;28;20447;-75
2022/04/25 10:47:36;;;;;;;1.70;1.60;;;15.00;69.80;;;;;;5014289;28;20464;-75
2022/04/25 10:50:05;;;;;;;1.80;1.70;;;14.90;70.90;;;;;;5014155;28;20444;-75
2022/04/25 10:52:55;;;;;;;1.67;1.57;;;15.20;69.80;;;;;;5013813;28;21011;-76
2022/04/25 10:55:33;;;;;;;1.60;1.50;;;15.60;70.30;;;;;;5014833;28;20436;-76
2022/04/25 10:58:27;;;;;;;1.80;1.70;;;15.80;69.50;;;;;;5014135;28;20472;-77
2022/04/25 11:00:55;;;;;;;1.70;1.70;;;15.60;70.60;;;;;;4978841;28;20456;-77
2022/04/25 11:03:30;;;;;;;1.60;1.50;;;15.40;70.00;;;;;;5014806;28;20451;-73
2022/04/25 11:05:58;;;;;;;1.80;1.70;;;15.40;71.10;;;;;;5015001;28;20448;-75
2022/04/25 11:08:27;;;;;;;1.60;1.50;;;15.70;69.70;;;;;;5014389;28;20468;-74
2022/04/25 11:11:03;;;;;;;1.80;1.70;;;16.00;68.80;;;;;;5014759;28;20448;-75
2022/04/25 11:13:31;;;;;;;1.50;1.50;;;16.20;68.40;;;;;;5014453;28;20471;-76
2022/04/25 11:16:01;;;;;;;1.40;1.30;;;16.30;67.90;;;;;;5015159;28;20548;-75
2022/04/25 11:18:33;;;;;;;1.30;1.30;;;16.40;66.70;;;;;;5014735;28;20510;-75
2022/04/25 11:21:04;;;;;;;1.57;1.57;;;16.40;66.40;;;;;;5014629;28;20433;-76
2022/04/25 11:23:32;;;;;;;1.60;1.50;;;16.30;66.70;;;;;;5015207;28;20452;-76
2022/04/25 11:26:01;;;;;;;1.73;1.63;;;16.30;68.40;;;;;;5020478;28;20451;-75
2022/04/25 11:28:28;;;;;;;1.50;1.50;;;16.20;68.70;;;;;;5020433;28;20844;-75
2022/04/25 11:31:29;;;;;;;1.50;1.50;;;16.00;68.40;;;;;;5020095;28;20944;-75
2022/04/25 11:33:57;;;;;;;1.40;1.30;;;15.90;69.70;;;;;;4959447;29;20513;-75
2022/04/25 11:36:25;;;;;;;1.40;1.40;;;15.80;71.30;;;;;;4959552;28;20475;-75
2022/04/25 11:41:41;;;;;;;1.90;1.80;;;15.60;73.90;;;;;;5020104;28;20407;-74
2022/04/25 11:44:09;;;;;;;1.50;1.40;;;15.60;74.90;;;;;;5020216;28;20460;-74
2022/04/25 11:46:37;;;;;;;1.60;1.60;;;15.50;74.80;;;;;;5020186;28;20498;-74
2022/04/25 11:49:05;;;;;;;1.50;1.40;;;15.40;75.60;;;;;;5020904;28;20565;-75
2022/04/25 11:51:33;;;;;;;1.40;1.40;;;15.40;76.60;;;;;;5022129;28;20982;-73
2022/04/25 11:54:04;;;;;;;1.77;1.67;;;15.30;77.20;;;;;;5021492;28;20487;-74
2022/04/25 11:56:32;;;;;;;1.50;1.50;;;15.20;77.50;;;;;;5022200;28;20448;-74
2022/04/25 11:59:06;;;;;;;1.70;1.60;;;15.10;78.20;;;;;;5020947;28;20467;-74
2022/04/25 12:01:33;;;;;;;1.47;1.47;;;15.00;78.40;;;;;;5022008;28;20436;-73
2022/04/25 12:04:17;;;;;;;1.40;1.40;;;14.80;78.90;;;;;;5021184;28;20444;-73
2022/04/25 12:06:49;;;;;;;1.30;1.30;;;14.60;79.30;;;;;;5020733;28;20966;-73
2022/04/25 12:17:40;;;;;;;1.50;1.50;;;14.70;79.80;;;;;;5021534;28;20474;-75
2022/04/25 12:20:09;;;;;;;1.67;1.57;;;14.60;80.60;;;;;;5021707;28;20452;-76
2022/04/25 12:22:37;;;;;;;1.60;1.50;;;14.80;80.30;;;;;;5021194;28;20451;-76
2022/04/25 12:25:15;;;;;;;1.30;1.30;;;14.90;80.10;;;;;;5021726;28;20451;-74
2022/04/25 12:28:00;;;;;;;1.63;1.63;;;14.70;78.30;;;;;;5021331;28;20467;-72
2022/04/25 12:30:30;;;;;;;1.30;1.30;;;14.60;79.90;;;;;;5022240;28;20512;-75
2022/04/25 12:33:07;;;;;;;1.60;1.53;;;14.50;80.70;;;;;;5020736;28;20913;-75
2022/04/25 12:35:35;;;;;;;1.80;1.70;;;14.50;80.40;;;;;;5020513;28;20523;-75
2022/04/25 12:38:03;;;;;;;1.60;1.60;;;14.40;79.70;;;;;;5017384;28;20484;-75
2022/04/25 12:40:29;;;;;;;1.30;1.30;;;14.50;81.70;;;;;;5017565;28;20965;-75
2022/04/25 12:42:56;;;;;;;1.40;1.40;;;14.70;82.50;;;;;;5017940;28;20448;-76
2022/04/25 12:45:24;;;;;;;1.40;1.40;;;14.60;82.00;;;;;;5017439;28;20452;-75
2022/04/25 12:47:56;;;;;;;1.50;1.50;;;14.80;80.60;;;;;;5017493;28;20503;-75
2022/04/25 12:50:43;;;;;;;1.73;1.63;;;14.60;78.70;;;;;;5018105;28;20439;-75
2022/04/25 12:53:10;;;;;;;1.70;1.60;;;14.30;79.40;;;;;;5017788;28;20510;-74
2022/04/25 12:55:44;;;;;;;1.37;1.37;;;14.30;80.70;;;;;;5017777;28;20459;-75
2022/04/25 12:58:11;;;;;;;1.37;1.33;;;14.40;80.00;;;;;;5017322;28;20483;-74
2022/04/25 13:00:43;;;;;;;1.20;1.20;;;14.50;80.30;;;;;;5017668;28;20482;-75
2022/04/25 13:03:12;;;;;;;1.17;1.07;;;14.50;81.00;;;;;;5017316;28;20456;-75
2022/04/25 13:05:39;;;;;;;1.30;1.30;;;14.50;77.80;;;;;;5018004;28;20894;-76
2022/04/25 13:08:06;;;;;;;1.53;1.17;;;14.90;80.50;;;;;;5017629;28;20468;-74
2022/04/25 13:10:33;;;;;;;1.03;1.03;;;14.80;78.70;;;;;;5017537;28;20813;-77
2022/04/25 13:13:01;;;;;;;1.03;1.03;;;14.70;78.30;;;;;;5017909;28;20484;-74
2022/04/25 13:15:29;;;;;;;1.10;1.10;;;14.80;76.90;;;;;;5016517;28;20967;-75
2022/04/25 13:17:56;;;;;;;1.10;1.10;;;14.90;77.00;;;;;;5017150;28;20480;-74
2022/04/25 13:20:28;;;;;;;0.73;0.73;;;15.10;77.10;;;;;;5017002;28;20440;-74
2022/04/25 13:22:55;;;;;;;0.83;0.83;;;15.30;73.40;;;;;;5017598;28;20439;-74
2022/04/25 13:25:23;;;;;;;0.80;0.80;;;15.60;76.20;;;;;;5017703;28;20452;-75
2022/04/25 13:27:50;;;;;;;0.80;0.80;;;16.00;73.20;;;;;;5016897;28;20468;-74
2022/04/25 13:30:18;;;;;;;0.90;0.90;;;16.30;68.70;;;;;;5016550;28;20456;-74
2022/04/25 13:32:45;;;;;;;0.80;0.80;;;16.30;70.50;;;;;;5016658;28;20507;-73
2022/04/25 13:35:14;;;;;;;0.83;0.83;;;16.30;68.00;;;;;;5017354;28;20448;-74
2022/04/25 13:37:42;;;;;;;0.80;0.80;;;16.30;70.70;;;;;;5016978;28;20476;-74
2022/04/25 13:40:10;;;;;;;0.70;0.70;;;16.30;67.20;;;;;;5017162;28;20455;-74
2022/04/25 13:42:37;;;;;;;0.80;0.80;;;16.20;70.60;;;;;;5016749;28;20449;-75
2022/04/25 13:45:05;;;;;;;0.60;0.60;;;16.30;68.10;;;;;;5016816;28;20448;-74
2022/04/25 13:47:32;;;;;;;0.70;0.70;;;16.00;65.30;;;;;;5016080;28;21067;-74
2022/04/25 13:49:59;;;;;;;1.53;0.70;;;16.00;68.40;;;;;;5016211;28;20444;-74
2022/04/25 13:52:25;;;;;;;0.60;0.60;;;16.10;66.60;;;;;;5017269;28;20460;-75
2022/04/25 13:54:54;;;;;;;0.70;0.70;;;16.20;66.50;;;;;;5017575;28;20436;-74
2022/04/25 13:57:20;;;;;;;0.70;0.70;;;16.40;65.20;;;;;;5017333;28;20472;-74
2022/04/25 13:59:47;;;;;;;0.80;0.80;;;16.40;66.10;;;;;;5017061;28;20428;-74
2022/04/25 14:04:58;;;;;;;0.70;0.70;;;16.60;64.50;;;;;;5017057;28;20403;-73
2022/04/25 14:07:25;;;;;;;0.70;0.70;;;16.50;66.40;;;;;;5016074;28;20472;-74
2022/04/25 14:09:53;;;;;;;0.70;0.70;;;15.80;66.20;;;;;;5014337;28;20829;-73
2022/04/25 14:12:20;;;;;;;0.70;0.70;;;15.50;67.20;;;;;;5014863;28;20532;-74
2022/04/25 14:14:46;;;;;;;0.77;0.77;;;16.00;68.20;;;;;;5014342;28;20531;-72
2022/04/25 14:17:13;;;;;;;0.67;0.67;;;15.70;66.80;;;;;;5014376;28;20463;-73
2022/04/25 14:19:41;;;;;;;0.70;0.60;;;15.50;68.10;;;;;;5014709;28;20444;-74
2022/04/25 14:22:07;;;;;;;0.70;0.70;;;15.80;67.70;;;;;;5014709;28;20463;-74
2022/04/25 14:24:35;;;;;;;0.70;0.70;;;16.20;65.50;;;;;;5014980;28;20448;-74
2022/04/25 14:27:03;;;;;;;0.80;0.70;;;16.20;65.20;;;;;;5025502;28;20433;-73
2022/04/25 14:29:31;;;;;;;0.70;0.60;;;15.90;66.90;;;;;;5039537;28;20421;-75
2022/04/25 14:31:59;;;;;;;0.70;0.70;;;15.70;67.40;;;;;;5025645;28;20459;-74
2022/04/25 14:34:26;;;;;;;0.67;0.60;;;15.60;68.10;;;;;;5015160;28;20566;-75
2022/04/25 14:36:53;;;;;;;0.67;0.60;;;15.40;67.50;;;;;;5014856;28;20448;-74
2022/04/25 14:39:19;;;;;;;0.67;0.60;;;15.80;68.00;;;;;;5014606;28;20457;-76
2022/04/25 14:41:46;;;;;;;0.60;0.60;;;16.00;67.70;;;;;;5014413;28;20502;-74
2022/04/25 14:44:14;;;;;;;0.70;0.70;;;16.10;66.30;;;;;;5014382;28;20444;-74
2022/04/25 14:46:41;;;;;;;0.70;0.70;;;15.90;66.50;;;;;;5014243;28;20448;-75
2022/04/25 14:49:07;;;;;;;0.60;0.50;;;16.00;66.20;;;;;;5014235;28;20452;-75
2022/04/25 14:54:21;;;;;;;0.80;0.60;;;16.50;66.40;;;;;;5014022;28;20470;-73
2022/04/25 14:56:48;;;;;;;0.70;0.60;;;16.80;65.10;;;;;;5014016;28;20535;-73
2022/04/25 14:59:16;;;;;;;0.70;0.60;;;17.10;63.40;;;;;;5013205;28;20965;-73
2022/04/25 15:01:43;;;;;;;0.70;0.70;;;17.10;62.80;;;;;;5013892;28;20452;-72
2022/04/25 15:04:09;;;;;;;0.70;0.60;;;17.40;63.10;;;;;;5013880;28;20444;-74
2022/04/25 15:06:36;;;;;;;0.80;0.60;;;17.80;61.70;;;;;;5013621;28;20962;-74
2022/04/25 15:09:03;;;;;;;0.60;0.57;;;18.00;61.40;;;;;;5014577;28;20475;-74
2022/04/25 15:11:29;;;;;;;0.70;0.67;;;17.60;62.10;;;;;;5013957;28;20504;-74
2022/04/25 15:13:56;;;;;;;0.63;0.60;;;17.00;63.10;;;;;;5013842;28;20880;-74
2022/04/25 15:16:24;;;;;;;0.70;0.70;;;17.10;65.20;;;;;;5013355;28;20790;-74
2022/04/25 15:18:51;;;;;;;0.70;0.60;;;17.60;64.30;;;;;;5117232;23;20508;-71
2022/04/25 15:21:17;;;;;;;0.60;0.60;;;18.90;60.80;;;;;;5013338;28;20506;-70
2022/04/25 15:23:44;;;;;;;0.70;0.50;;;19.80;56.60;;;;;;5013219;28;20494;-72
2022/04/25 15:26:11;;;;;;;0.70;0.60;;;20.40;55.90;;;;;;5013301;28;20443;-72
2022/04/25 15:28:37;;;;;;;0.70;0.67;;;20.80;54.90;;;;;;5013706;28;20467;-71
2022/04/25 15:31:04;;;;;;;0.60;0.50;;;20.50;54.80;;;;;;5013400;28;20444;-71
2022/04/25 15:33:32;;;;;;;0.80;0.70;;;20.30;55.80;;;;;;5013238;28;20480;-71
2022/04/25 15:35:59;;;;;;;0.70;0.70;;;19.80;55.90;;;;;;5013378;28;20498;-71
2022/04/25 15:38:27;;;;;;;0.60;0.60;;;18.70;57.30;;;;;;5012860;28;20991;-71
2022/04/25 15:40:53;;;;;;;0.63;0.63;;;18.50;59.50;;;;;;5012667;28;20963;-71
2022/04/25 15:43:20;;;;;;;0.63;0.60;;;17.90;60.20;;;;;;5012727;28;20924;-70
2022/04/25 15:45:47;;;;;;;0.60;0.60;;;16.90;62.60;;;;;;5012665;28;20932;-70
2022/04/25 15:48:13;;;;;;;0.60;0.60;;;16.70;64.50;;;;;;5013037;28;20543;-72
2022/04/25 15:50:41;;;;;;;0.70;0.70;;;16.10;65.70;;;;;;5012945;28;20518;-71
2022/04/25 15:53:08;;;;;;;0.70;0.70;;;15.90;66.10;;;;;;5012752;28;20510;-70
2022/04/25 15:58:19;;;;;;;0.73;0.73;;;16.00;66.70;;;;;;5012721;28;20451;-71
2022/04/25 16:00:45;;;;;;;0.70;0.70;;;15.80;67.30;;;;;;5012677;28;20448;-70
2022/04/25 16:03:12;;;;;;;0.70;0.60;;;15.80;67.90;;;;;;5012666;28;20459;-71
2022/04/25 16:05:42;;;;;;;0.67;0.60;;;15.70;68.20;;;;;;5012611;28;20819;-71
2022/04/25 16:08:15;;;;;;;0.67;0.60;;;15.40;67.60;;;;;;5012619;28;20476;-72
2022/04/25 16:10:41;;;;;;;0.70;0.60;;;15.10;69.00;;;;;;5012923;28;20799;-71
2022/04/25 16:13:08;;;;;;;0.80;0.80;;;14.90;69.90;;;;;;5015961;28;20455;-71
2022/04/25 16:15:36;;;;;;;0.70;0.63;;;14.90;70.10;;;;;;5016538;28;20487;-70
2022/04/25 16:18:02;;;;;;;0.70;0.60;;;14.80;70.40;;;;;;5017232;28;20511;-70
2022/04/25 16:20:30;;;;;;;0.70;0.70;;;15.00;70.70;;;;;;5016360;28;20432;-71
2022/04/25 16:23:00;;;;;;;0.60;0.60;;;15.00;70.50;;;;;;5016786;28;20503;-72
2022/04/25 16:25:27;;;;;;;0.60;0.50;;;15.10;70.20;;;;;;5016297;28;20459;-72
2022/04/25 16:27:53;;;;;;;0.70;0.60;;;15.30;70.00;;;;;;5016050;28;20921;-71
2022/04/25 16:30:23;;;;;;;1.10;1.00;;;15.50;69.20;;;;;;5016182;28;20530;-72
2022/04/25 16:32:49;;;;;;;0.60;0.60;;;15.60;68.50;;;;;;5015563;28;20451;-72
2022/04/25 16:35:16;;;;;;;0.90;0.90;;;15.70;68.40;;;;;;5015968;28;20483;-72
2022/04/25 16:37:43;;;;;;;0.70;0.67;;;15.80;68.80;;;;;;5015914;28;20464;-72
2022/04/25 16:40:12;;;;;;;0.70;0.70;;;15.80;69.80;;;;;;5015960;28;20452;-72
2022/04/25 16:42:39;;;;;;;1.00;0.70;;;15.90;69.50;;;;;;5015905;28;20456;-71